• Join FlightAware (Why Join?)
  • Login
  • US Flag GB Flag 
15:58 EST


 

Airport Tracker/Info


-or-


 

Live Flight TrackerFlight Track Log ✈ N400PU ✈ 02-Dec-2012 ✈ KLAF - KMWO

Flight Track Log - Related Links

Times and Time Zones

All times are in EST time to prevent confusion due to time zone crossing. See the N400PU flight status page for this flight to view local times or setup timezone preferences in your user account.

Time Position Orientation Groundspeed Altitude Reporting Facility
EST Latitude Longitude Course Direction KTS MPH feet Rate Location/Type
10:14 40.4119 -86.9667 172° South 155 178 1,500  Level Chicago Center
10:15 40.3525 -86.9556 172° South 256 295 4,900 2,100 Climbing Indianapolis Center
10:16 40.3258 -86.8628 111° Southeast 267 307 7,100 1,740 Climbing Indianapolis Center
10:17 40.3006 -86.7642 109° East 281 323 8,500 1,380 Climbing Indianapolis Center
10:19 40.2706 -86.6608 111° Southeast 295 339 10,000 1,500 Climbing Indianapolis Center
10:20 40.2381 -86.5408 109° East 334 384 11,600 1,440 Climbing Indianapolis Center
10:21 40.2014 -86.4083 110° East 378 435 13,000 660 Climbing Indianapolis Center
10:22 40.1631 -86.2700 110° East 397 457 13,000  Level Indianapolis Center
10:23 40.1236 -86.1272 110° East 407 468 13,000  Level Indianapolis Center
10:23 40.1000 -86.0167 106° East 411 473 13,000  Level Indianapolis TRACON
10:24 40.0833 -85.9850 125° Southeast 411 473 13,000  Level Indianapolis Center
10:25 40.0444 -85.8444 110° East 408 470 13,000  Level Indianapolis Center
10:26 40.0044 -85.7031 110° East 410 472 13,000  Level Indianapolis Center
10:27 39.9647 -85.5622 110° East 410 472 13,000  Level Indianapolis Center
10:28 39.9244 -85.4219 110° East 409 471 13,000  Level Indianapolis Center
10:28 39.8994 -85.3333 110° East 410 472 13,000  Level Indianapolis Center
10:29 39.8842 -85.2814 111° Southeast 410 472 13,000 -120 Level Indianapolis Center
10:30 39.8436 -85.1417 111° Southeast 409 471 12,900 -1,020 Descending Indianapolis Center
10:31 39.8006 -84.9861 110° East 381 438 11,000 -1,740 Descending Indianapolis Center
10:32 39.7972 -84.8742 92° East 334 384 9,400 -1,620 Descending Indianapolis Center
10:33 39.7781 -84.7592 102° East 323 372 7,700 -1,860 Descending Indianapolis Center
10:34 39.7592 -84.6486 102° East 314 361 5,700 -1,980 Descending Indianapolis Center
10:35 39.7361 -84.5186 103° East 302 348 3,400 -1,320 Descending Indianapolis Center
10:36 39.7228 -84.4350 102° East 303 349 3,000 -240 Descending Indianapolis Center
10:37 39.7047 -84.3336 103° East 296 341 3,000  Level Indianapolis Center
10:38 39.6775 -84.2564 115° Southeast 257 296 3,000 -60 Level Indianapolis Center
10:39 39.6331 -84.2433 167° South 174 200 2,900 -60 Descending Indianapolis Center
10:40 39.6128 -84.2711 227° Southwest 125 144 2,900 -300 Level Indianapolis Center
10:41 39.5942 -84.2992 229° Southwest 110 127 2,400 -480 Descending Indianapolis Center
10:42 39.5756 -84.3261 228° Southwest 96 110 1,900 -480 Descending Indianapolis Center
10:43 39.5586 -84.3536 231° Southwest 94 108 1,400 -540 Descending Indianapolis Center